sensor_id;sensor_type;location;lat;lon;timestamp;temperature;humidity
7077;DHT22;3579;48.956;9.154;2023-01-06T00:01:33;18.30;56.70
7077;DHT22;3579;48.956;9.154;2023-01-06T00:04:00;18.30;56.70
7077;DHT22;3579;48.956;9.154;2023-01-06T00:06:28;18.30;56.70
7077;DHT22;3579;48.956;9.154;2023-01-06T00:09:00;18.30;56.70
7077;DHT22;3579;48.956;9.154;2023-01-06T00:11:27;18.20;56.70
7077;DHT22;3579;48.956;9.154;2023-01-06T00:13:54;18.20;56.70
7077;DHT22;3579;48.956;9.154;2023-01-06T00:16:21;18.20;56.70
7077;DHT22;3579;48.956;9.154;2023-01-06T00:18:48;18.20;56.70
7077;DHT22;3579;48.956;9.154;2023-01-06T00:21:14;18.20;56.70
7077;DHT22;3579;48.956;9.154;2023-01-06T00:23:40;18.20;56.70
7077;DHT22;3579;48.956;9.154;2023-01-06T00:26:08;18.20;56.80
7077;DHT22;3579;48.956;9.154;2023-01-06T00:28:34;18.20;56.70
7077;DHT22;3579;48.956;9.154;2023-01-06T00:31:09;18.10;56.70
7077;DHT22;3579;48.956;9.154;2023-01-06T00:33:36;18.20;56.80
7077;DHT22;3579;48.956;9.154;2023-01-06T00:36:03;18.10;56.70
7077;DHT22;3579;48.956;9.154;2023-01-06T00:38:30;18.10;56.70
7077;DHT22;3579;48.956;9.154;2023-01-06T00:40:56;18.10;56.70
7077;DHT22;3579;48.956;9.154;2023-01-06T00:43:22;18.10;56.70
7077;DHT22;3579;48.956;9.154;2023-01-06T00:45:48;18.10;56.70
7077;DHT22;3579;48.956;9.154;2023-01-06T00:48:14;18.10;56.70
7077;DHT22;3579;48.956;9.154;2023-01-06T00:50:40;18.10;56.70
7077;DHT22;3579;48.956;9.154;2023-01-06T00:53:06;18.10;56.70
7077;DHT22;3579;48.956;9.154;2023-01-06T00:55:32;18.10;56.80
7077;DHT22;3579;48.956;9.154;2023-01-06T00:57:58;18.10;56.80
7077;DHT22;3579;48.956;9.154;2023-01-06T01:00:24;18.10;56.80
7077;DHT22;3579;48.956;9.154;2023-01-06T01:02:50;18.10;56.80
7077;DHT22;3579;48.956;9.154;2023-01-06T01:05:16;18.10;56.80
7077;DHT22;3579;48.956;9.154;2023-01-06T01:07:42;18.10;56.80
7077;DHT22;3579;48.956;9.154;2023-01-06T01:10:09;18.10;56.80
7077;DHT22;3579;48.956;9.154;2023-01-06T01:12:35;18.10;56.80
7077;DHT22;3579;48.956;9.154;2023-01-06T01:15:01;18.10;56.80
7077;DHT22;3579;48.956;9.154;2023-01-06T01:17:29;18.10;56.80
7077;DHT22;3579;48.956;9.154;2023-01-06T01:19:56;18.10;56.80
7077;DHT22;3579;48.956;9.154;2023-01-06T01:22:25;18.00;56.80
7077;DHT22;3579;48.956;9.154;2023-01-06T01:24:52;18.00;57.30
7077;DHT22;3579;48.956;9.154;2023-01-06T01:27:18;18.00;56.80
7077;DHT22;3579;48.956;9.154;2023-01-06T01:29:44;18.00;56.80
7077;DHT22;3579;48.956;9.154;2023-01-06T01:32:10;18.00;56.80
7077;DHT22;3579;48.956;9.154;2023-01-06T01:34:36;18.00;56.80
7077;DHT22;3579;48.956;9.154;2023-01-06T01:37:02;18.00;56.80
7077;DHT22;3579;48.956;9.154;2023-01-06T01:39:29;18.00;56.80
7077;DHT22;3579;48.956;9.154;2023-01-06T01:41:57;18.00;56.80
7077;DHT22;3579;48.956;9.154;2023-01-06T01:47:46;18.00;56.90
7077;DHT22;3579;48.956;9.154;2023-01-06T01:50:22;18.00;56.90
7077;DHT22;3579;48.956;9.154;2023-01-06T01:53:07;18.00;56.90
7077;DHT22;3579;48.956;9.154;2023-01-06T01:55:35;18.00;56.90
7077;DHT22;3579;48.956;9.154;2023-01-06T02:00:30;17.90;56.80
7077;DHT22;3579;48.956;9.154;2023-01-06T02:02:57;17.90;56.90
7077;DHT22;3579;48.956;9.154;2023-01-06T02:05:25;17.90;56.90
7077;DHT22;3579;48.956;9.154;2023-01-06T02:07:53;17.90;56.80
7077;DHT22;3579;48.956;9.154;2023-01-06T02:10:21;17.90;56.90
7077;DHT22;3579;48.956;9.154;2023-01-06T02:12:50;17.90;56.90
7077;DHT22;3579;48.956;9.154;2023-01-06T02:15:21;17.90;57.00
7077;DHT22;3579;48.956;9.154;2023-01-06T02:31:55;17.90;57.00
7077;DHT22;3579;48.956;9.154;2023-01-06T02:37:23;17.80;57.00
7077;DHT22;3579;48.956;9.154;2023-01-06T02:40:01;17.80;57.00
7077;DHT22;3579;48.956;9.154;2023-01-06T02:45:16;17.80;57.50
7077;DHT22;3579;48.956;9.154;2023-01-06T02:50:19;17.80;57.00
7077;DHT22;3579;48.956;9.154;2023-01-06T02:55:34;17.80;57.00
7077;DHT22;3579;48.956;9.154;2023-01-06T02:58:18;17.80;57.00
7077;DHT22;3579;48.956;9.154;2023-01-06T03:01:03;17.80;57.00
7077;DHT22;3579;48.956;9.154;2023-01-06T03:03:34;17.80;57.00
7077;DHT22;3579;48.956;9.154;2023-01-06T03:06:10;17.80;57.00
7077;DHT22;3579;48.956;9.154;2023-01-06T03:08:38;17.80;57.00
7077;DHT22;3579;48.956;9.154;2023-01-06T03:11:04;17.80;57.00
7077;DHT22;3579;48.956;9.154;2023-01-06T03:13:43;17.80;57.00
7077;DHT22;3579;48.956;9.154;2023-01-06T03:16:12;17.80;57.00
7077;DHT22;3579;48.956;9.154;2023-01-06T03:18:40;17.80;57.00
7077;DHT22;3579;48.956;9.154;2023-01-06T03:21:10;17.80;57.00
7077;DHT22;3579;48.956;9.154;2023-01-06T03:23:39;17.80;57.60
7077;DHT22;3579;48.956;9.154;2023-01-06T03:26:05;17.70;57.00
7077;DHT22;3579;48.956;9.154;2023-01-06T03:28:31;17.80;57.00
7077;DHT22;3579;48.956;9.154;2023-01-06T03:39:14;17.70;57.00
7077;DHT22;3579;48.956;9.154;2023-01-06T03:41:56;17.70;57.00
7077;DHT22;3579;48.956;9.154;2023-01-06T03:53:47;17.70;57.00
7077;DHT22;3579;48.956;9.154;2023-01-06T03:58:54;17.70;57.00
7077;DHT22;3579;48.956;9.154;2023-01-06T04:01:22;17.70;57.10
7077;DHT22;3579;48.956;9.154;2023-01-06T04:03:52;17.70;57.10
7077;DHT22;3579;48.956;9.154;2023-01-06T04:06:18;17.70;57.10
7077;DHT22;3579;48.956;9.154;2023-01-06T04:08:44;17.70;57.10
7077;DHT22;3579;48.956;9.154;2023-01-06T04:11:11;17.70;57.10
7077;DHT22;3579;48.956;9.154;2023-01-06T04:13:57;17.60;57.50
7077;DHT22;3579;48.956;9.154;2023-01-06T04:16:23;17.70;57.10
7077;DHT22;3579;48.956;9.154;2023-01-06T04:18:49;17.60;57.00
7077;DHT22;3579;48.956;9.154;2023-01-06T04:21:15;17.60;57.00
7077;DHT22;3579;48.956;9.154;2023-01-06T04:23:42;17.60;57.00
7077;DHT22;3579;48.956;9.154;2023-01-06T04:26:08;17.60;57.10
7077;DHT22;3579;48.956;9.154;2023-01-06T04:28:34;17.60;57.10
7077;DHT22;3579;48.956;9.154;2023-01-06T04:31:00;17.60;57.10
7077;DHT22;3579;48.956;9.154;2023-01-06T04:33:27;17.60;57.10
7077;DHT22;3579;48.956;9.154;2023-01-06T04:35:53;17.60;57.10
7077;DHT22;3579;48.956;9.154;2023-01-06T04:38:19;17.60;57.60
7077;DHT22;3579;48.956;9.154;2023-01-06T04:40:45;17.60;57.10
7077;DHT22;3579;48.956;9.154;2023-01-06T04:43:11;17.60;57.10
7077;DHT22;3579;48.956;9.154;2023-01-06T04:45:42;17.60;57.10
7077;DHT22;3579;48.956;9.154;2023-01-06T04:48:12;17.60;57.10
7077;DHT22;3579;48.956;9.154;2023-01-06T04:50:38;17.60;57.70
7077;DHT22;3579;48.956;9.154;2023-01-06T04:53:05;17.60;57.10
7077;DHT22;3579;48.956;9.154;2023-01-06T04:55:31;17.60;57.10
7077;DHT22;3579;48.956;9.154;2023-01-06T04:57:57;17.60;57.10
7077;DHT22;3579;48.956;9.154;2023-01-06T05:00:24;17.60;57.10
7077;DHT22;3579;48.956;9.154;2023-01-06T05:02:50;17.60;57.20
7077;DHT22;3579;48.956;9.154;2023-01-06T05:05:16;17.60;57.20
7077;DHT22;3579;48.956;9.154;2023-01-06T05:07:42;17.60;57.10
7077;DHT22;3579;48.956;9.154;2023-01-06T05:10:09;17.60;57.10
7077;DHT22;3579;48.956;9.154;2023-01-06T05:12:35;17.60;57.10
7077;DHT22;3579;48.956;9.154;2023-01-06T05:15:02;17.60;57.20
7077;DHT22;3579;48.956;9.154;2023-01-06T05:17:28;17.60;57.20
7077;DHT22;3579;48.956;9.154;2023-01-06T05:19:54;17.60;57.10
7077;DHT22;3579;48.956;9.154;2023-01-06T05:22:20;17.60;57.20
7077;DHT22;3579;48.956;9.154;2023-01-06T05:24:46;17.60;57.20
7077;DHT22;3579;48.956;9.154;2023-01-06T05:27:12;17.60;57.20
7077;DHT22;3579;48.956;9.154;2023-01-06T05:29:38;17.50;57.10
7077;DHT22;3579;48.956;9.154;2023-01-06T05:32:05;17.60;57.20
7077;DHT22;3579;48.956;9.154;2023-01-06T05:34:31;17.60;57.20
7077;DHT22;3579;48.956;9.154;2023-01-06T05:36:57;17.50;57.10
7077;DHT22;3579;48.956;9.154;2023-01-06T05:39:23;17.60;57.20
7077;DHT22;3579;48.956;9.154;2023-01-06T05:41:49;17.50;57.10
7077;DHT22;3579;48.956;9.154;2023-01-06T05:44:15;17.50;57.20
7077;DHT22;3579;48.956;9.154;2023-01-06T05:46:41;17.50;57.20
7077;DHT22;3579;48.956;9.154;2023-01-06T05:49:08;17.50;57.10
7077;DHT22;3579;48.956;9.154;2023-01-06T05:51:34;17.50;57.20
7077;DHT22;3579;48.956;9.154;2023-01-06T05:54:00;17.50;57.20
7077;DHT22;3579;48.956;9.154;2023-01-06T05:56:26;17.50;57.20
7077;DHT22;3579;48.956;9.154;2023-01-06T05:58:52;17.50;57.20
7077;DHT22;3579;48.956;9.154;2023-01-06T06:01:24;17.50;57.10
7077;DHT22;3579;48.956;9.154;2023-01-06T06:03:51;17.50;57.10
7077;DHT22;3579;48.956;9.154;2023-01-06T06:06:18;17.50;57.20
7077;DHT22;3579;48.956;9.154;2023-01-06T06:08:45;17.50;57.10
7077;DHT22;3579;48.956;9.154;2023-01-06T06:11:13;17.50;57.20
7077;DHT22;3579;48.956;9.154;2023-01-06T06:13:47;17.50;57.20
7077;DHT22;3579;48.956;9.154;2023-01-06T06:16:15;17.50;57.20
7077;DHT22;3579;48.956;9.154;2023-01-06T06:18:41;17.50;57.20
7077;DHT22;3579;48.956;9.154;2023-01-06T06:21:10;17.50;57.20
7077;DHT22;3579;48.956;9.154;2023-01-06T06:23:36;17.50;57.20
7077;DHT22;3579;48.956;9.154;2023-01-06T06:26:03;17.50;57.20
7077;DHT22;3579;48.956;9.154;2023-01-06T06:28:30;17.50;57.20
7077;DHT22;3579;48.956;9.154;2023-01-06T06:31:04;17.50;57.20
7077;DHT22;3579;48.956;9.154;2023-01-06T06:33:31;17.50;57.20
7077;DHT22;3579;48.956;9.154;2023-01-06T06:35:58;17.50;57.20
7077;DHT22;3579;48.956;9.154;2023-01-06T06:38:24;17.50;57.20
7077;DHT22;3579;48.956;9.154;2023-01-06T06:40:50;17.50;57.20
7077;DHT22;3579;48.956;9.154;2023-01-06T06:43:16;17.50;57.20
7077;DHT22;3579;48.956;9.154;2023-01-06T06:45:46;17.50;57.20
7077;DHT22;3579;48.956;9.154;2023-01-06T06:48:12;17.50;57.20
7077;DHT22;3579;48.956;9.154;2023-01-06T06:50:39;17.50;57.20
7077;DHT22;3579;48.956;9.154;2023-01-06T06:53:05;17.50;57.30
7077;DHT22;3579;48.956;9.154;2023-01-06T06:55:32;17.50;57.20
7077;DHT22;3579;48.956;9.154;2023-01-06T06:57:58;17.50;57.20
7077;DHT22;3579;48.956;9.154;2023-01-06T07:00:24;17.50;57.20
7077;DHT22;3579;48.956;9.154;2023-01-06T07:02:51;17.50;57.20
7077;DHT22;3579;48.956;9.154;2023-01-06T07:05:17;17.50;57.30
7077;DHT22;3579;48.956;9.154;2023-01-06T07:07:44;17.50;57.20
7077;DHT22;3579;48.956;9.154;2023-01-06T07:10:14;17.50;57.20
7077;DHT22;3579;48.956;9.154;2023-01-06T07:12:40;17.50;57.30
7077;DHT22;3579;48.956;9.154;2023-01-06T07:15:07;17.50;57.30
7077;DHT22;3579;48.956;9.154;2023-01-06T07:17:33;17.50;57.20
7077;DHT22;3579;48.956;9.154;2023-01-06T07:20:00;17.50;57.20
7077;DHT22;3579;48.956;9.154;2023-01-06T07:22:26;17.50;57.20
7077;DHT22;3579;48.956;9.154;2023-01-06T07:24:51;17.40;57.20
7077;DHT22;3579;48.956;9.154;2023-01-06T07:27:17;17.40;57.20
7077;DHT22;3579;48.956;9.154;2023-01-06T07:29:43;17.50;57.30
7077;DHT22;3579;48.956;9.154;2023-01-06T07:32:09;17.40;57.20
7077;DHT22;3579;48.956;9.154;2023-01-06T07:34:35;17.40;57.20
7077;DHT22;3579;48.956;9.154;2023-01-06T07:37:02;17.40;57.20
7077;DHT22;3579;48.956;9.154;2023-01-06T07:39:27;17.40;57.30
7077;DHT22;3579;48.956;9.154;2023-01-06T07:41:53;17.40;57.30
7077;DHT22;3579;48.956;9.154;2023-01-06T07:44:19;17.40;57.30
7077;DHT22;3579;48.956;9.154;2023-01-06T07:46:45;17.40;57.30
7077;DHT22;3579;48.956;9.154;2023-01-06T07:49:11;17.40;57.30
7077;DHT22;3579;48.956;9.154;2023-01-06T07:51:37;17.40;57.30
7077;DHT22;3579;48.956;9.154;2023-01-06T07:54:03;17.40;57.30
7077;DHT22;3579;48.956;9.154;2023-01-06T07:56:29;17.50;57.40
7077;DHT22;3579;48.956;9.154;2023-01-06T07:58:55;17.40;57.30
7077;DHT22;3579;48.956;9.154;2023-01-06T08:01:21;17.40;57.30
7077;DHT22;3579;48.956;9.154;2023-01-06T08:03:47;17.40;57.30
7077;DHT22;3579;48.956;9.154;2023-01-06T08:06:13;17.40;57.20
7077;DHT22;3579;48.956;9.154;2023-01-06T08:08:40;17.40;57.20
7077;DHT22;3579;48.956;9.154;2023-01-06T08:11:10;17.40;57.20
7077;DHT22;3579;48.956;9.154;2023-01-06T08:13:36;17.40;57.20
7077;DHT22;3579;48.956;9.154;2023-01-06T08:16:07;17.40;57.20
7077;DHT22;3579;48.956;9.154;2023-01-06T08:18:34;17.40;57.20
7077;DHT22;3579;48.956;9.154;2023-01-06T08:21:02;17.50;57.30
7077;DHT22;3579;48.956;9.154;2023-01-06T08:23:28;17.40;57.20
7077;DHT22;3579;48.956;9.154;2023-01-06T08:26:02;17.40;57.20
7077;DHT22;3579;48.956;9.154;2023-01-06T08:28:29;17.50;57.30
7077;DHT22;3579;48.956;9.154;2023-01-06T08:30:55;17.50;57.30
7077;DHT22;3579;48.956;9.154;2023-01-06T08:33:21;17.50;57.30
7077;DHT22;3579;48.956;9.154;2023-01-06T08:35:49;17.50;57.30
7077;DHT22;3579;48.956;9.154;2023-01-06T08:38:15;17.50;57.30
7077;DHT22;3579;48.956;9.154;2023-01-06T08:40:41;17.50;57.30
7077;DHT22;3579;48.956;9.154;2023-01-06T08:43:07;17.60;57.30
7077;DHT22;3579;48.956;9.154;2023-01-06T08:45:37;17.50;57.20
7077;DHT22;3579;48.956;9.154;2023-01-06T08:48:04;17.50;57.80
7077;DHT22;3579;48.956;9.154;2023-01-06T08:50:30;17.50;57.30
7077;DHT22;3579;48.956;9.154;2023-01-06T08:52:56;17.50;57.30
7077;DHT22;3579;48.956;9.154;2023-01-06T08:55:22;17.50;57.20
7077;DHT22;3579;48.956;9.154;2023-01-06T08:57:48;17.60;57.90
7077;DHT22;3579;48.956;9.154;2023-01-06T09:00:14;17.60;57.40
7077;DHT22;3579;48.956;9.154;2023-01-06T09:02:40;17.60;57.30
7077;DHT22;3579;48.956;9.154;2023-01-06T09:05:07;17.60;57.30
7077;DHT22;3579;48.956;9.154;2023-01-06T09:07:33;17.70;57.50
7077;DHT22;3579;48.956;9.154;2023-01-06T09:09:59;17.60;57.40
7077;DHT22;3579;48.956;9.154;2023-01-06T09:12:25;17.70;57.40
7077;DHT22;3579;48.956;9.154;2023-01-06T09:14:51;17.70;57.90
7077;DHT22;3579;48.956;9.154;2023-01-06T09:17:17;17.70;57.70
7077;DHT22;3579;48.956;9.154;2023-01-06T09:19:43;17.70;57.40
7077;DHT22;3579;48.956;9.154;2023-01-06T09:22:09;17.70;57.40
7077;DHT22;3579;48.956;9.154;2023-01-06T09:24:35;17.80;58.00
7077;DHT22;3579;48.956;9.154;2023-01-06T09:27:01;17.80;57.50
7077;DHT22;3579;48.956;9.154;2023-01-06T09:29:27;17.80;57.50
7077;DHT22;3579;48.956;9.154;2023-01-06T09:31:53;17.80;57.50
7077;DHT22;3579;48.956;9.154;2023-01-06T09:34:19;17.80;57.50
7077;DHT22;3579;48.956;9.154;2023-01-06T09:36:45;17.90;57.50
7077;DHT22;3579;48.956;9.154;2023-01-06T09:39:11;17.90;57.50
7077;DHT22;3579;48.956;9.154;2023-01-06T09:41:53;17.90;57.60
7077;DHT22;3579;48.956;9.154;2023-01-06T09:47:25;18.00;57.70
7077;DHT22;3579;48.956;9.154;2023-01-06T09:52:40;18.00;57.70
7077;DHT22;3579;48.956;9.154;2023-01-06T09:55:13;18.00;57.70
7077;DHT22;3579;48.956;9.154;2023-01-06T09:57:43;18.10;57.80
7077;DHT22;3579;48.956;9.154;2023-01-06T10:00:43;18.10;57.70
7077;DHT22;3579;48.956;9.154;2023-01-06T10:03:15;18.10;57.70
7077;DHT22;3579;48.956;9.154;2023-01-06T10:08:46;18.10;57.60
7077;DHT22;3579;48.956;9.154;2023-01-06T10:25:52;18.30;57.60
7077;DHT22;3579;48.956;9.154;2023-01-06T10:28:26;18.30;57.50
7077;DHT22;3579;48.956;9.154;2023-01-06T10:30:58;18.30;58.00
7077;DHT22;3579;48.956;9.154;2023-01-06T10:33:31;18.30;57.50
7077;DHT22;3579;48.956;9.154;2023-01-06T10:35:59;18.30;57.40
7077;DHT22;3579;48.956;9.154;2023-01-06T10:38:42;18.40;57.40
7077;DHT22;3579;48.956;9.154;2023-01-06T10:44:00;18.40;57.40
7077;DHT22;3579;48.956;9.154;2023-01-06T10:46:32;18.40;57.40
7077;DHT22;3579;48.956;9.154;2023-01-06T10:49:03;18.40;57.30
7077;DHT22;3579;48.956;9.154;2023-01-06T10:51:36;18.40;57.30
7077;DHT22;3579;48.956;9.154;2023-01-06T10:54:07;18.50;57.30
7077;DHT22;3579;48.956;9.154;2023-01-06T10:56:34;18.50;57.30
7077;DHT22;3579;48.956;9.154;2023-01-06T10:59:09;18.50;57.20
7077;DHT22;3579;48.956;9.154;2023-01-06T11:01:47;18.50;57.30
7077;DHT22;3579;48.956;9.154;2023-01-06T11:04:14;18.50;57.20
7077;DHT22;3579;48.956;9.154;2023-01-06T11:07:03;18.50;57.20
7077;DHT22;3579;48.956;9.154;2023-01-06T11:09:37;18.60;57.20
7077;DHT22;3579;48.956;9.154;2023-01-06T11:12:19;18.60;57.20
7077;DHT22;3579;48.956;9.154;2023-01-06T11:15:02;18.60;57.20
7077;DHT22;3579;48.956;9.154;2023-01-06T11:17:30;18.60;57.20
7077;DHT22;3579;48.956;9.154;2023-01-06T11:22:40;18.60;57.10
7077;DHT22;3579;48.956;9.154;2023-01-06T11:25:24;18.60;57.10
7077;DHT22;3579;48.956;9.154;2023-01-06T11:28:22;18.70;57.10
7077;DHT22;3579;48.956;9.154;2023-01-06T11:33:53;18.70;57.20
7077;DHT22;3579;48.956;9.154;2023-01-06T11:36:22;18.70;57.20
7077;DHT22;3579;48.956;9.154;2023-01-06T11:39:00;18.70;57.10
7077;DHT22;3579;48.956;9.154;2023-01-06T11:41:38;18.70;57.10
7077;DHT22;3579;48.956;9.154;2023-01-06T11:44:12;18.70;57.10
7077;DHT22;3579;48.956;9.154;2023-01-06T11:46:47;18.80;57.20
7077;DHT22;3579;48.956;9.154;2023-01-06T11:49:41;18.80;57.10
7077;DHT22;3579;48.956;9.154;2023-01-06T11:52:23;18.80;57.10
7077;DHT22;3579;48.956;9.154;2023-01-06T11:57:41;18.80;57.10
7077;DHT22;3579;48.956;9.154;2023-01-06T12:03:10;18.80;57.00
7077;DHT22;3579;48.956;9.154;2023-01-06T12:08:20;18.80;57.00
7077;DHT22;3579;48.956;9.154;2023-01-06T12:10:52;18.80;57.00
7077;DHT22;3579;48.956;9.154;2023-01-06T12:13:21;18.80;57.00
7077;DHT22;3579;48.956;9.154;2023-01-06T12:15:56;18.80;57.50
7077;DHT22;3579;48.956;9.154;2023-01-06T12:18:27;18.80;57.00
7077;DHT22;3579;48.956;9.154;2023-01-06T12:20:54;18.80;57.00
7077;DHT22;3579;48.956;9.154;2023-01-06T12:25:49;18.90;57.00
7077;DHT22;3579;48.956;9.154;2023-01-06T12:28:20;18.90;57.00
7077;DHT22;3579;48.956;9.154;2023-01-06T12:37:09;18.90;57.00
7077;DHT22;3579;48.956;9.154;2023-01-06T12:41:52;18.90;56.90
7077;DHT22;3579;48.956;9.154;2023-01-06T12:44:45;18.90;56.90
7077;DHT22;3579;48.956;9.154;2023-01-06T12:47:32;18.90;56.90
7077;DHT22;3579;48.956;9.154;2023-01-06T12:52:33;18.90;56.90
7077;DHT22;3579;48.956;9.154;2023-01-06T12:55:03;19.00;57.00
7077;DHT22;3579;48.956;9.154;2023-01-06T13:00:27;19.00;57.00
7077;DHT22;3579;48.956;9.154;2023-01-06T13:16:41;19.00;56.90
7077;DHT22;3579;48.956;9.154;2023-01-06T13:39:17;19.00;56.90
7077;DHT22;3579;48.956;9.154;2023-01-06T13:41:48;19.00;56.90
7077;DHT22;3579;48.956;9.154;2023-01-06T13:44:21;19.00;56.90
7077;DHT22;3579;48.956;9.154;2023-01-06T13:46:50;19.00;56.90
7077;DHT22;3579;48.956;9.154;2023-01-06T13:49:18;19.00;56.90
7077;DHT22;3579;48.956;9.154;2023-01-06T13:51:45;19.00;56.90
7077;DHT22;3579;48.956;9.154;2023-01-06T14:02:56;19.00;56.90
7077;DHT22;3579;48.956;9.154;2023-01-06T14:07:53;19.00;56.90
7077;DHT22;3579;48.956;9.154;2023-01-06T14:12:55;19.00;56.90
7077;DHT22;3579;48.956;9.154;2023-01-06T14:15:29;19.00;56.90
7077;DHT22;3579;48.956;9.154;2023-01-06T14:17:57;18.90;56.80
7077;DHT22;3579;48.956;9.154;2023-01-06T14:22:58;19.00;56.90
7077;DHT22;3579;48.956;9.154;2023-01-06T14:25:26;19.00;56.90
7077;DHT22;3579;48.956;9.154;2023-01-06T14:30:24;19.00;56.90
7077;DHT22;3579;48.956;9.154;2023-01-06T14:32:56;19.00;56.90
7077;DHT22;3579;48.956;9.154;2023-01-06T14:35:30;19.00;56.90
7077;DHT22;3579;48.956;9.154;2023-01-06T14:38:03;18.90;56.80
7077;DHT22;3579;48.956;9.154;2023-01-06T14:40:37;19.00;57.40
7077;DHT22;3579;48.956;9.154;2023-01-06T14:43:29;18.90;56.80
7077;DHT22;3579;48.956;9.154;2023-01-06T14:45:57;18.90;56.90
7077;DHT22;3579;48.956;9.154;2023-01-06T14:48:28;18.90;56.90
7077;DHT22;3579;48.956;9.154;2023-01-06T14:50:58;18.90;56.90
7077;DHT22;3579;48.956;9.154;2023-01-06T14:53:32;18.90;56.90
7077;DHT22;3579;48.956;9.154;2023-01-06T14:56:00;18.90;56.90
7077;DHT22;3579;48.956;9.154;2023-01-06T15:00:56;18.90;56.90
7077;DHT22;3579;48.956;9.154;2023-01-06T15:03:24;18.90;56.90
7077;DHT22;3579;48.956;9.154;2023-01-06T15:06:08;19.00;57.00
7077;DHT22;3579;48.956;9.154;2023-01-06T15:08:35;18.90;56.80
7077;DHT22;3579;48.956;9.154;2023-01-06T15:11:15;18.90;56.90
7077;DHT22;3579;48.956;9.154;2023-01-06T15:13:43;18.90;56.90
7077;DHT22;3579;48.956;9.154;2023-01-06T15:16:33;18.90;56.90
7077;DHT22;3579;48.956;9.154;2023-01-06T15:19:03;18.90;56.90
7077;DHT22;3579;48.956;9.154;2023-01-06T15:21:30;18.90;57.00
7077;DHT22;3579;48.956;9.154;2023-01-06T15:23:57;18.90;56.90
7077;DHT22;3579;48.956;9.154;2023-01-06T15:26:25;18.90;56.90
7077;DHT22;3579;48.956;9.154;2023-01-06T15:29:00;18.90;56.90
7077;DHT22;3579;48.956;9.154;2023-01-06T15:31:32;18.90;56.90
7077;DHT22;3579;48.956;9.154;2023-01-06T15:34:10;18.90;57.00
7077;DHT22;3579;48.956;9.154;2023-01-06T15:36:40;18.90;56.90
7077;DHT22;3579;48.956;9.154;2023-01-06T15:39:12;18.90;56.90
7077;DHT22;3579;48.956;9.154;2023-01-06T15:41:39;18.90;57.00
7077;DHT22;3579;48.956;9.154;2023-01-06T15:44:35;18.90;57.00
7077;DHT22;3579;48.956;9.154;2023-01-06T15:49:42;18.80;56.90
7077;DHT22;3579;48.956;9.154;2023-01-06T15:54:50;18.90;57.00
7077;DHT22;3579;48.956;9.154;2023-01-06T15:57:17;18.80;56.90
7077;DHT22;3579;48.956;9.154;2023-01-06T15:59:58;18.80;56.90
7077;DHT22;3579;48.956;9.154;2023-01-06T16:02:28;18.80;56.90
7077;DHT22;3579;48.956;9.154;2023-01-06T16:04:55;18.80;56.90
7077;DHT22;3579;48.956;9.154;2023-01-06T16:07:39;18.80;56.90
7077;DHT22;3579;48.956;9.154;2023-01-06T16:10:31;18.80;56.80
7077;DHT22;3579;48.956;9.154;2023-01-06T16:15:46;18.80;56.90
7077;DHT22;3579;48.956;9.154;2023-01-06T16:18:13;18.80;56.90
7077;DHT22;3579;48.956;9.154;2023-01-06T16:20:39;18.80;56.90
7077;DHT22;3579;48.956;9.154;2023-01-06T16:23:06;18.80;56.90
7077;DHT22;3579;48.956;9.154;2023-01-06T16:25:41;18.80;56.90
7077;DHT22;3579;48.956;9.154;2023-01-06T16:28:18;18.80;56.90
7077;DHT22;3579;48.956;9.154;2023-01-06T16:31:03;18.80;56.90
7077;DHT22;3579;48.956;9.154;2023-01-06T16:33:40;18.80;56.90
7077;DHT22;3579;48.956;9.154;2023-01-06T16:36:15;18.80;56.90
7077;DHT22;3579;48.956;9.154;2023-01-06T16:38:42;18.80;56.90
7077;DHT22;3579;48.956;9.154;2023-01-06T16:41:14;18.80;56.90
7077;DHT22;3579;48.956;9.154;2023-01-06T16:43:41;18.80;56.90
7077;DHT22;3579;48.956;9.154;2023-01-06T16:46:20;18.80;56.90
7077;DHT22;3579;48.956;9.154;2023-01-06T16:48:47;18.70;56.80
7077;DHT22;3579;48.956;9.154;2023-01-06T16:51:15;18.80;56.90
7077;DHT22;3579;48.956;9.154;2023-01-06T16:53:45;18.80;57.00
7077;DHT22;3579;48.956;9.154;2023-01-06T16:56:22;18.80;57.00
7077;DHT22;3579;48.956;9.154;2023-01-06T16:58:49;18.80;57.00
7077;DHT22;3579;48.956;9.154;2023-01-06T17:01:18;18.70;56.90
7077;DHT22;3579;48.956;9.154;2023-01-06T17:03:56;18.70;56.90
7077;DHT22;3579;48.956;9.154;2023-01-06T17:06:25;18.70;56.90
7077;DHT22;3579;48.956;9.154;2023-01-06T17:08:54;18.70;56.90
7077;DHT22;3579;48.956;9.154;2023-01-06T17:11:23;18.70;56.90
7077;DHT22;3579;48.956;9.154;2023-01-06T17:13:52;18.80;56.90
7077;DHT22;3579;48.956;9.154;2023-01-06T17:16:22;18.70;56.90
7077;DHT22;3579;48.956;9.154;2023-01-06T17:18:55;18.70;56.90
7077;DHT22;3579;48.956;9.154;2023-01-06T17:21:28;18.70;56.90
7077;DHT22;3579;48.956;9.154;2023-01-06T17:27:29;18.70;56.90
7077;DHT22;3579;48.956;9.154;2023-01-06T17:29:36;18.70;56.90
7077;DHT22;3579;48.956;9.154;2023-01-06T17:32:12;18.70;56.90
7077;DHT22;3579;48.956;9.154;2023-01-06T17:34:39;18.70;56.90
7077;DHT22;3579;48.956;9.154;2023-01-06T17:37:12;18.70;56.90
7077;DHT22;3579;48.956;9.154;2023-01-06T17:39:42;18.70;56.90
7077;DHT22;3579;48.956;9.154;2023-01-06T17:49:44;18.70;56.90
7077;DHT22;3579;48.956;9.154;2023-01-06T17:52:18;18.60;56.80
7077;DHT22;3579;48.956;9.154;2023-01-06T17:54:53;18.70;56.90
7077;DHT22;3579;48.956;9.154;2023-01-06T17:57:40;18.70;57.00
7077;DHT22;3579;48.956;9.154;2023-01-06T18:00:32;18.60;57.40
7077;DHT22;3579;48.956;9.154;2023-01-06T18:03:01;18.70;57.00
7077;DHT22;3579;48.956;9.154;2023-01-06T18:10:34;18.60;56.90
7077;DHT22;3579;48.956;9.154;2023-01-06T18:13:23;18.60;56.90
7077;DHT22;3579;48.956;9.154;2023-01-06T18:15:52;18.60;56.90
7077;DHT22;3579;48.956;9.154;2023-01-06T18:18:22;18.60;56.90
7077;DHT22;3579;48.956;9.154;2023-01-06T18:20:52;18.60;56.90
7077;DHT22;3579;48.956;9.154;2023-01-06T18:23:21;18.60;56.90
7077;DHT22;3579;48.956;9.154;2023-01-06T18:25:50;18.60;56.90
7077;DHT22;3579;48.956;9.154;2023-01-06T18:28:17;18.60;56.90
7077;DHT22;3579;48.956;9.154;2023-01-06T18:30:45;18.60;56.90
7077;DHT22;3579;48.956;9.154;2023-01-06T18:33:14;18.60;56.90
7077;DHT22;3579;48.956;9.154;2023-01-06T18:35:41;18.50;57.40
7077;DHT22;3579;48.956;9.154;2023-01-06T18:38:07;18.60;56.90
7077;DHT22;3579;48.956;9.154;2023-01-06T18:40:36;18.50;56.90
7077;DHT22;3579;48.956;9.154;2023-01-06T18:43:29;18.50;56.90
7077;DHT22;3579;48.956;9.154;2023-01-06T18:46:00;18.50;56.80
7077;DHT22;3579;48.956;9.154;2023-01-06T18:48:30;18.50;56.90
7077;DHT22;3579;48.956;9.154;2023-01-06T18:51:01;18.50;56.90
7077;DHT22;3579;48.956;9.154;2023-01-06T18:53:39;18.50;56.90
7077;DHT22;3579;48.956;9.154;2023-01-06T18:56:14;18.50;56.90
7077;DHT22;3579;48.956;9.154;2023-01-06T18:58:42;18.50;56.80
7077;DHT22;3579;48.956;9.154;2023-01-06T19:12:15;18.40;56.80
7077;DHT22;3579;48.956;9.154;2023-01-06T19:14:45;18.40;56.80
7077;DHT22;3579;48.956;9.154;2023-01-06T19:17:27;18.40;57.10
7077;DHT22;3579;48.956;9.154;2023-01-06T19:19:55;18.40;56.80
7077;DHT22;3579;48.956;9.154;2023-01-06T19:22:26;18.40;56.90
7077;DHT22;3579;48.956;9.154;2023-01-06T19:25:02;18.40;56.90
7077;DHT22;3579;48.956;9.154;2023-01-06T19:27:41;18.40;57.40
7077;DHT22;3579;48.956;9.154;2023-01-06T19:33:36;18.40;56.90
7077;DHT22;3579;48.956;9.154;2023-01-06T19:38:47;18.40;56.90
7077;DHT22;3579;48.956;9.154;2023-01-06T19:41:22;18.40;56.90
7077;DHT22;3579;48.956;9.154;2023-01-06T19:43:52;18.40;56.90